sensor_id;sensor_type;location;lat;lon;timestamp;temperature;humidity
42833;DHT22;64089;51.478;5.692;2024-02-21T00:01:45;9.50;99.90
42833;DHT22;64089;51.478;5.692;2024-02-21T00:04:10;9.50;99.90
42833;DHT22;64089;51.478;5.692;2024-02-21T00:06:36;9.50;99.90
42833;DHT22;64089;51.478;5.692;2024-02-21T00:09:02;9.50;99.90
42833;DHT22;64089;51.478;5.692;2024-02-21T00:11:28;9.50;99.90
42833;DHT22;64089;51.478;5.692;2024-02-21T00:13:53;9.50;99.90
42833;DHT22;64089;51.478;5.692;2024-02-21T00:16:19;9.50;99.90
42833;DHT22;64089;51.478;5.692;2024-02-21T00:18:45;9.50;99.90
42833;DHT22;64089;51.478;5.692;2024-02-21T00:21:11;9.50;99.90
42833;DHT22;64089;51.478;5.692;2024-02-21T00:23:43;9.50;99.90
42833;DHT22;64089;51.478;5.692;2024-02-21T00:26:09;9.50;99.90
42833;DHT22;64089;51.478;5.692;2024-02-21T00:28:34;9.50;99.90
42833;DHT22;64089;51.478;5.692;2024-02-21T00:31:00;9.50;99.90
42833;DHT22;64089;51.478;5.692;2024-02-21T00:33:25;9.50;99.90
42833;DHT22;64089;51.478;5.692;2024-02-21T00:35:51;9.50;99.90
42833;DHT22;64089;51.478;5.692;2024-02-21T00:38:17;9.50;99.90
42833;DHT22;64089;51.478;5.692;2024-02-21T00:40:42;9.50;99.90
42833;DHT22;64089;51.478;5.692;2024-02-21T00:43:08;9.50;99.90
42833;DHT22;64089;51.478;5.692;2024-02-21T00:45:33;9.50;99.90
42833;DHT22;64089;51.478;5.692;2024-02-21T00:47:59;9.60;99.90
42833;DHT22;64089;51.478;5.692;2024-02-21T00:50:24;9.60;99.90
42833;DHT22;64089;51.478;5.692;2024-02-21T00:52:50;9.50;99.90
42833;DHT22;64089;51.478;5.692;2024-02-21T00:55:15;9.50;99.90
42833;DHT22;64089;51.478;5.692;2024-02-21T00:57:41;9.40;99.90
42833;DHT22;64089;51.478;5.692;2024-02-21T01:00:07;9.30;99.90
42833;DHT22;64089;51.478;5.692;2024-02-21T01:02:33;9.20;99.90
42833;DHT22;64089;51.478;5.692;2024-02-21T01:04:59;9.10;99.90
42833;DHT22;64089;51.478;5.692;2024-02-21T01:07:24;9.10;99.90
42833;DHT22;64089;51.478;5.692;2024-02-21T01:09:50;9.10;99.90
42833;DHT22;64089;51.478;5.692;2024-02-21T01:12:18;9.00;99.90
42833;DHT22;64089;51.478;5.692;2024-02-21T01:14:44;9.00;99.90
42833;DHT22;64089;51.478;5.692;2024-02-21T01:17:11;9.00;99.90
42833;DHT22;64089;51.478;5.692;2024-02-21T01:19:37;9.00;99.90
42833;DHT22;64089;51.478;5.692;2024-02-21T01:22:04;9.00;99.90
42833;DHT22;64089;51.478;5.692;2024-02-21T01:24:29;9.00;99.90
42833;DHT22;64089;51.478;5.692;2024-02-21T01:26:55;9.00;99.90
42833;DHT22;64089;51.478;5.692;2024-02-21T01:29:21;9.10;99.90
42833;DHT22;64089;51.478;5.692;2024-02-21T01:31:46;9.10;99.90
42833;DHT22;64089;51.478;5.692;2024-02-21T01:34:13;9.10;99.90
42833;DHT22;64089;51.478;5.692;2024-02-21T01:36:39;9.10;99.90
42833;DHT22;64089;51.478;5.692;2024-02-21T01:39:04;9.10;99.90
42833;DHT22;64089;51.478;5.692;2024-02-21T01:41:30;9.00;99.90
42833;DHT22;64089;51.478;5.692;2024-02-21T01:43:56;9.00;99.90
42833;DHT22;64089;51.478;5.692;2024-02-21T01:46:23;9.00;99.90
42833;DHT22;64089;51.478;5.692;2024-02-21T01:48:53;9.00;99.90
42833;DHT22;64089;51.478;5.692;2024-02-21T01:51:19;9.00;99.90
42833;DHT22;64089;51.478;5.692;2024-02-21T01:53:46;8.90;99.90
42833;DHT22;64089;51.478;5.692;2024-02-21T01:56:12;8.90;99.90
42833;DHT22;64089;51.478;5.692;2024-02-21T01:58:40;9.00;99.90
42833;DHT22;64089;51.478;5.692;2024-02-21T02:01:06;9.00;99.90
42833;DHT22;64089;51.478;5.692;2024-02-21T02:03:32;9.00;99.90
42833;DHT22;64089;51.478;5.692;2024-02-21T02:05:57;9.00;99.90
42833;DHT22;64089;51.478;5.692;2024-02-21T02:08:23;9.00;99.90
42833;DHT22;64089;51.478;5.692;2024-02-21T02:10:49;8.90;99.90
42833;DHT22;64089;51.478;5.692;2024-02-21T02:13:15;8.90;99.90
42833;DHT22;64089;51.478;5.692;2024-02-21T02:15:44;9.00;99.90
42833;DHT22;64089;51.478;5.692;2024-02-21T02:18:13;9.00;99.90
42833;DHT22;64089;51.478;5.692;2024-02-21T02:20:39;9.10;99.90
42833;DHT22;64089;51.478;5.692;2024-02-21T02:23:29;9.10;99.90
42833;DHT22;64089;51.478;5.692;2024-02-21T02:25:55;9.10;99.90
42833;DHT22;64089;51.478;5.692;2024-02-21T02:28:21;9.20;99.90
42833;DHT22;64089;51.478;5.692;2024-02-21T02:30:47;9.10;99.90
42833;DHT22;64089;51.478;5.692;2024-02-21T02:33:13;9.10;99.90
42833;DHT22;64089;51.478;5.692;2024-02-21T02:35:39;9.10;99.90
42833;DHT22;64089;51.478;5.692;2024-02-21T02:38:05;9.10;99.90
42833;DHT22;64089;51.478;5.692;2024-02-21T02:40:35;9.00;99.90
42833;DHT22;64089;51.478;5.692;2024-02-21T02:43:01;9.10;99.90
42833;DHT22;64089;51.478;5.692;2024-02-21T02:45:26;9.00;99.90
42833;DHT22;64089;51.478;5.692;2024-02-21T02:47:53;9.00;99.90
42833;DHT22;64089;51.478;5.692;2024-02-21T02:50:26;9.00;99.90
42833;DHT22;64089;51.478;5.692;2024-02-21T02:52:53;9.00;99.90
42833;DHT22;64089;51.478;5.692;2024-02-21T02:55:19;9.10;99.90
42833;DHT22;64089;51.478;5.692;2024-02-21T02:57:45;9.10;99.90
42833;DHT22;64089;51.478;5.692;2024-02-21T03:00:11;9.20;99.90
42833;DHT22;64089;51.478;5.692;2024-02-21T03:02:39;9.20;99.90
42833;DHT22;64089;51.478;5.692;2024-02-21T03:05:15;9.20;99.90
42833;DHT22;64089;51.478;5.692;2024-02-21T03:07:41;9.20;99.90
42833;DHT22;64089;51.478;5.692;2024-02-21T03:10:08;9.10;99.90
42833;DHT22;64089;51.478;5.692;2024-02-21T03:12:33;9.10;99.90
42833;DHT22;64089;51.478;5.692;2024-02-21T03:14:59;9.10;99.90
42833;DHT22;64089;51.478;5.692;2024-02-21T03:17:25;9.10;99.90
42833;DHT22;64089;51.478;5.692;2024-02-21T03:19:52;9.10;99.90
42833;DHT22;64089;51.478;5.692;2024-02-21T03:22:18;9.00;99.90
42833;DHT22;64089;51.478;5.692;2024-02-21T03:24:45;9.00;99.90
42833;DHT22;64089;51.478;5.692;2024-02-21T03:27:10;9.00;99.90
42833;DHT22;64089;51.478;5.692;2024-02-21T03:29:36;9.00;99.90
42833;DHT22;64089;51.478;5.692;2024-02-21T03:32:02;9.00;99.90
42833;DHT22;64089;51.478;5.692;2024-02-21T03:34:27;9.10;99.90
42833;DHT22;64089;51.478;5.692;2024-02-21T03:36:53;9.10;99.90
42833;DHT22;64089;51.478;5.692;2024-02-21T03:39:19;9.10;99.90
42833;DHT22;64089;51.478;5.692;2024-02-21T03:41:45;9.10;99.90
42833;DHT22;64089;51.478;5.692;2024-02-21T03:44:11;9.10;99.90
42833;DHT22;64089;51.478;5.692;2024-02-21T03:46:36;9.10;99.90
42833;DHT22;64089;51.478;5.692;2024-02-21T03:49:02;9.10;99.90
42833;DHT22;64089;51.478;5.692;2024-02-21T03:51:27;9.10;99.90
42833;DHT22;64089;51.478;5.692;2024-02-21T03:53:53;9.10;99.90
42833;DHT22;64089;51.478;5.692;2024-02-21T03:56:21;9.00;99.90
42833;DHT22;64089;51.478;5.692;2024-02-21T03:58:47;9.00;99.90
42833;DHT22;64089;51.478;5.692;2024-02-21T04:01:15;9.10;99.90
42833;DHT22;64089;51.478;5.692;2024-02-21T04:03:42;9.00;99.90
42833;DHT22;64089;51.478;5.692;2024-02-21T04:06:08;9.10;99.90
42833;DHT22;64089;51.478;5.692;2024-02-21T04:08:34;9.00;99.90
42833;DHT22;64089;51.478;5.692;2024-02-21T04:10:59;9.00;99.90
42833;DHT22;64089;51.478;5.692;2024-02-21T04:13:25;9.00;99.90
42833;DHT22;64089;51.478;5.692;2024-02-21T04:15:51;9.00;99.90
42833;DHT22;64089;51.478;5.692;2024-02-21T04:18:17;9.00;99.90
42833;DHT22;64089;51.478;5.692;2024-02-21T04:20:42;9.00;99.90
42833;DHT22;64089;51.478;5.692;2024-02-21T04:23:08;9.00;99.90
42833;DHT22;64089;51.478;5.692;2024-02-21T04:25:33;9.10;99.90
42833;DHT22;64089;51.478;5.692;2024-02-21T04:27:59;9.10;99.90
42833;DHT22;64089;51.478;5.692;2024-02-21T04:30:25;9.10;99.90
42833;DHT22;64089;51.478;5.692;2024-02-21T04:32:50;9.10;99.90
42833;DHT22;64089;51.478;5.692;2024-02-21T04:35:16;9.00;99.90
42833;DHT22;64089;51.478;5.692;2024-02-21T04:37:42;9.00;99.90
42833;DHT22;64089;51.478;5.692;2024-02-21T04:40:08;9.00;99.90
42833;DHT22;64089;51.478;5.692;2024-02-21T04:42:34;9.00;99.90
42833;DHT22;64089;51.478;5.692;2024-02-21T04:45:00;9.00;99.90
42833;DHT22;64089;51.478;5.692;2024-02-21T04:47:26;9.00;99.90
42833;DHT22;64089;51.478;5.692;2024-02-21T04:49:52;9.00;99.90
42833;DHT22;64089;51.478;5.692;2024-02-21T04:52:18;9.00;99.90
42833;DHT22;64089;51.478;5.692;2024-02-21T04:54:44;9.00;99.90
42833;DHT22;64089;51.478;5.692;2024-02-21T04:57:09;9.00;99.90
42833;DHT22;64089;51.478;5.692;2024-02-21T04:59:36;9.00;99.90
42833;DHT22;64089;51.478;5.692;2024-02-21T05:02:02;9.00;99.90
42833;DHT22;64089;51.478;5.692;2024-02-21T05:04:28;9.00;99.90
42833;DHT22;64089;51.478;5.692;2024-02-21T05:06:53;9.00;99.90
42833;DHT22;64089;51.478;5.692;2024-02-21T05:09:20;9.00;99.90
42833;DHT22;64089;51.478;5.692;2024-02-21T05:11:45;9.00;99.90
42833;DHT22;64089;51.478;5.692;2024-02-21T05:14:11;9.00;99.90
42833;DHT22;64089;51.478;5.692;2024-02-21T05:16:38;9.00;99.90
42833;DHT22;64089;51.478;5.692;2024-02-21T05:19:05;9.00;99.90
42833;DHT22;64089;51.478;5.692;2024-02-21T05:21:30;9.00;99.90
42833;DHT22;64089;51.478;5.692;2024-02-21T05:23:56;9.00;99.90
42833;DHT22;64089;51.478;5.692;2024-02-21T05:26:25;8.90;99.90
42833;DHT22;64089;51.478;5.692;2024-02-21T05:28:51;9.00;99.90
42833;DHT22;64089;51.478;5.692;2024-02-21T05:31:18;9.00;99.90
42833;DHT22;64089;51.478;5.692;2024-02-21T05:33:44;8.90;99.90
42833;DHT22;64089;51.478;5.692;2024-02-21T05:36:10;8.90;99.90
42833;DHT22;64089;51.478;5.692;2024-02-21T05:38:36;8.90;99.90
42833;DHT22;64089;51.478;5.692;2024-02-21T05:41:01;8.90;99.90
42833;DHT22;64089;51.478;5.692;2024-02-21T05:43:27;9.00;99.90
42833;DHT22;64089;51.478;5.692;2024-02-21T05:45:53;8.90;99.90
42833;DHT22;64089;51.478;5.692;2024-02-21T05:48:18;8.90;99.90
42833;DHT22;64089;51.478;5.692;2024-02-21T05:50:44;8.90;99.90
42833;DHT22;64089;51.478;5.692;2024-02-21T05:53:09;8.90;99.90
42833;DHT22;64089;51.478;5.692;2024-02-21T05:55:36;8.90;99.90
42833;DHT22;64089;51.478;5.692;2024-02-21T05:58:02;8.90;99.90
42833;DHT22;64089;51.478;5.692;2024-02-21T06:00:28;8.90;99.90
42833;DHT22;64089;51.478;5.692;2024-02-21T06:02:54;9.00;99.90
42833;DHT22;64089;51.478;5.692;2024-02-21T06:05:22;9.00;99.90
42833;DHT22;64089;51.478;5.692;2024-02-21T06:07:47;9.00;99.90
42833;DHT22;64089;51.478;5.692;2024-02-21T06:10:13;9.00;99.90
42833;DHT22;64089;51.478;5.692;2024-02-21T06:12:38;9.00;99.90
42833;DHT22;64089;51.478;5.692;2024-02-21T06:15:04;9.00;99.90
42833;DHT22;64089;51.478;5.692;2024-02-21T06:17:30;9.00;99.90
42833;DHT22;64089;51.478;5.692;2024-02-21T06:19:56;9.00;99.90
42833;DHT22;64089;51.478;5.692;2024-02-21T06:22:21;9.00;99.90
42833;DHT22;64089;51.478;5.692;2024-02-21T06:24:47;9.00;99.90
42833;DHT22;64089;51.478;5.692;2024-02-21T06:27:13;9.00;99.90
42833;DHT22;64089;51.478;5.692;2024-02-21T06:29:40;9.00;99.90
42833;DHT22;64089;51.478;5.692;2024-02-21T06:32:06;9.00;99.90
42833;DHT22;64089;51.478;5.692;2024-02-21T06:34:32;9.00;99.90
42833;DHT22;64089;51.478;5.692;2024-02-21T06:36:57;9.00;99.90
42833;DHT22;64089;51.478;5.692;2024-02-21T06:39:23;9.00;99.90
42833;DHT22;64089;51.478;5.692;2024-02-21T06:41:49;9.00;99.90
42833;DHT22;64089;51.478;5.692;2024-02-21T06:44:16;9.10;99.90
42833;DHT22;64089;51.478;5.692;2024-02-21T06:46:42;9.00;99.90
42833;DHT22;64089;51.478;5.692;2024-02-21T06:49:08;9.00;99.90
42833;DHT22;64089;51.478;5.692;2024-02-21T06:51:33;9.00;99.90
42833;DHT22;64089;51.478;5.692;2024-02-21T06:54:00;9.00;99.90
42833;DHT22;64089;51.478;5.692;2024-02-21T06:56:25;9.10;99.90
42833;DHT22;64089;51.478;5.692;2024-02-21T06:58:54;9.10;99.90
42833;DHT22;64089;51.478;5.692;2024-02-21T07:01:20;9.00;99.90
42833;DHT22;64089;51.478;5.692;2024-02-21T07:03:45;9.00;99.90
42833;DHT22;64089;51.478;5.692;2024-02-21T07:06:11;9.00;99.90
42833;DHT22;64089;51.478;5.692;2024-02-21T07:08:38;9.00;99.90
42833;DHT22;64089;51.478;5.692;2024-02-21T07:11:04;9.00;99.90
42833;DHT22;64089;51.478;5.692;2024-02-21T07:13:31;9.00;99.90
42833;DHT22;64089;51.478;5.692;2024-02-21T07:15:57;9.00;99.90
42833;DHT22;64089;51.478;5.692;2024-02-21T07:18:23;9.10;99.90
42833;DHT22;64089;51.478;5.692;2024-02-21T07:20:51;9.10;99.90
42833;DHT22;64089;51.478;5.692;2024-02-21T07:23:16;9.10;99.90
42833;DHT22;64089;51.478;5.692;2024-02-21T07:25:42;9.10;99.90
42833;DHT22;64089;51.478;5.692;2024-02-21T07:28:07;9.10;99.90
42833;DHT22;64089;51.478;5.692;2024-02-21T07:30:34;9.20;99.90
42833;DHT22;64089;51.478;5.692;2024-02-21T07:33:00;9.20;99.90
42833;DHT22;64089;51.478;5.692;2024-02-21T07:35:26;9.20;99.90
42833;DHT22;64089;51.478;5.692;2024-02-21T07:37:51;9.20;99.90
42833;DHT22;64089;51.478;5.692;2024-02-21T07:40:17;9.20;99.90
42833;DHT22;64089;51.478;5.692;2024-02-21T07:42:43;9.20;99.90
42833;DHT22;64089;51.478;5.692;2024-02-21T07:45:09;9.20;99.90
42833;DHT22;64089;51.478;5.692;2024-02-21T07:47:36;9.30;99.90
42833;DHT22;64089;51.478;5.692;2024-02-21T07:50:02;9.20;99.90
42833;DHT22;64089;51.478;5.692;2024-02-21T07:52:28;9.30;99.90
42833;DHT22;64089;51.478;5.692;2024-02-21T07:54:53;9.30;99.90
42833;DHT22;64089;51.478;5.692;2024-02-21T07:57:19;9.30;99.90
42833;DHT22;64089;51.478;5.692;2024-02-21T07:59:45;9.40;99.90
42833;DHT22;64089;51.478;5.692;2024-02-21T08:02:14;9.40;99.90
42833;DHT22;64089;51.478;5.692;2024-02-21T08:04:39;9.40;99.90
42833;DHT22;64089;51.478;5.692;2024-02-21T08:07:05;9.50;99.90
42833;DHT22;64089;51.478;5.692;2024-02-21T08:09:30;9.50;99.90
42833;DHT22;64089;51.478;5.692;2024-02-21T08:11:56;9.50;99.90
42833;DHT22;64089;51.478;5.692;2024-02-21T08:14:22;9.50;99.90
42833;DHT22;64089;51.478;5.692;2024-02-21T08:16:50;9.50;99.90
42833;DHT22;64089;51.478;5.692;2024-02-21T08:19:16;9.50;99.90
42833;DHT22;64089;51.478;5.692;2024-02-21T08:21:42;9.50;99.90
42833;DHT22;64089;51.478;5.692;2024-02-21T08:24:08;9.60;99.90
42833;DHT22;64089;51.478;5.692;2024-02-21T08:26:33;9.60;99.90
42833;DHT22;64089;51.478;5.692;2024-02-21T08:28:59;9.70;99.90
42833;DHT22;64089;51.478;5.692;2024-02-21T08:31:26;9.70;99.90
42833;DHT22;64089;51.478;5.692;2024-02-21T08:33:59;9.70;99.90
42833;DHT22;64089;51.478;5.692;2024-02-21T08:36:29;9.70;99.90
42833;DHT22;64089;51.478;5.692;2024-02-21T08:38:55;9.70;99.90
42833;DHT22;64089;51.478;5.692;2024-02-21T08:41:21;9.70;99.90
42833;DHT22;64089;51.478;5.692;2024-02-21T08:43:49;9.70;99.90
42833;DHT22;64089;51.478;5.692;2024-02-21T08:46:15;9.80;99.90
42833;DHT22;64089;51.478;5.692;2024-02-21T08:48:40;9.80;99.90
42833;DHT22;64089;51.478;5.692;2024-02-21T08:51:06;9.80;99.90
42833;DHT22;64089;51.478;5.692;2024-02-21T08:53:32;9.90;99.90
42833;DHT22;64089;51.478;5.692;2024-02-21T08:55:57;9.90;99.90
42833;DHT22;64089;51.478;5.692;2024-02-21T08:58:24;9.90;99.90
42833;DHT22;64089;51.478;5.692;2024-02-21T09:00:52;9.90;99.90
42833;DHT22;64089;51.478;5.692;2024-02-21T09:03:17;10.00;99.90
42833;DHT22;64089;51.478;5.692;2024-02-21T09:05:45;10.00;99.90
42833;DHT22;64089;51.478;5.692;2024-02-21T09:08:11;9.90;99.90
42833;DHT22;64089;51.478;5.692;2024-02-21T09:10:36;9.90;99.90
42833;DHT22;64089;51.478;5.692;2024-02-21T09:13:02;9.80;99.90
42833;DHT22;64089;51.478;5.692;2024-02-21T09:15:29;9.70;99.90
42833;DHT22;64089;51.478;5.692;2024-02-21T09:17:54;9.60;99.90
42833;DHT22;64089;51.478;5.692;2024-02-21T09:20:20;9.60;99.90
42833;DHT22;64089;51.478;5.692;2024-02-21T09:22:46;9.60;99.90
42833;DHT22;64089;51.478;5.692;2024-02-21T09:25:11;9.50;99.90
42833;DHT22;64089;51.478;5.692;2024-02-21T09:27:38;9.50;99.90
42833;DHT22;64089;51.478;5.692;2024-02-21T09:30:05;9.50;99.90
42833;DHT22;64089;51.478;5.692;2024-02-21T09:32:32;9.50;99.90
42833;DHT22;64089;51.478;5.692;2024-02-21T09:34:58;9.50;99.90
42833;DHT22;64089;51.478;5.692;2024-02-21T09:37:24;9.50;99.90
42833;DHT22;64089;51.478;5.692;2024-02-21T09:39:49;9.50;99.90
42833;DHT22;64089;51.478;5.692;2024-02-21T09:42:20;9.50;99.90
42833;DHT22;64089;51.478;5.692;2024-02-21T09:44:46;9.60;99.90
42833;DHT22;64089;51.478;5.692;2024-02-21T09:49:40;9.60;99.90
42833;DHT22;64089;51.478;5.692;2024-02-21T09:52:07;9.60;99.90
42833;DHT22;64089;51.478;5.692;2024-02-21T09:54:34;9.60;99.90
42833;DHT22;64089;51.478;5.692;2024-02-21T09:57:00;9.70;99.90
42833;DHT22;64089;51.478;5.692;2024-02-21T09:59:31;9.70;99.90
42833;DHT22;64089;51.478;5.692;2024-02-21T10:01:57;9.80;99.90
42833;DHT22;64089;51.478;5.692;2024-02-21T10:04:24;9.90;99.90
42833;DHT22;64089;51.478;5.692;2024-02-21T10:06:50;9.90;99.90
42833;DHT22;64089;51.478;5.692;2024-02-21T10:09:26;10.00;99.90
42833;DHT22;64089;51.478;5.692;2024-02-21T10:11:56;10.00;99.90
42833;DHT22;64089;51.478;5.692;2024-02-21T10:14:32;10.10;99.90
42833;DHT22;64089;51.478;5.692;2024-02-21T10:16:58;10.20;99.90
42833;DHT22;64089;51.478;5.692;2024-02-21T10:19:28;10.30;99.90
42833;DHT22;64089;51.478;5.692;2024-02-21T10:22:01;10.30;99.90
42833;DHT22;64089;51.478;5.692;2024-02-21T10:24:29;10.40;99.90
42833;DHT22;64089;51.478;5.692;2024-02-21T10:27:08;10.40;99.90
42833;DHT22;64089;51.478;5.692;2024-02-21T10:29:36;10.60;99.90
42833;DHT22;64089;51.478;5.692;2024-02-21T10:32:09;10.60;99.90
42833;DHT22;64089;51.478;5.692;2024-02-21T10:34:36;10.70;99.90
42833;DHT22;64089;51.478;5.692;2024-02-21T10:37:06;10.80;99.90
42833;DHT22;64089;51.478;5.692;2024-02-21T10:39:39;10.80;99.90
42833;DHT22;64089;51.478;5.692;2024-02-21T10:42:05;10.90;99.90
42833;DHT22;64089;51.478;5.692;2024-02-21T10:44:37;10.80;99.90
42833;DHT22;64089;51.478;5.692;2024-02-21T10:47:08;10.80;99.90
42833;DHT22;64089;51.478;5.692;2024-02-21T10:49:37;10.70;99.90
42833;DHT22;64089;51.478;5.692;2024-02-21T10:55:10;10.80;99.90
42833;DHT22;64089;51.478;5.692;2024-02-21T10:57:39;11.00;99.90
42833;DHT22;64089;51.478;5.692;2024-02-21T11:00:05;11.00;99.90
42833;DHT22;64089;51.478;5.692;2024-02-21T11:02:34;11.10;99.90
42833;DHT22;64089;51.478;5.692;2024-02-21T11:05:01;11.20;99.90
42833;DHT22;64089;51.478;5.692;2024-02-21T11:07:29;11.30;99.90
42833;DHT22;64089;51.478;5.692;2024-02-21T11:09:55;11.40;99.90
42833;DHT22;64089;51.478;5.692;2024-02-21T11:12:21;11.40;99.90
42833;DHT22;64089;51.478;5.692;2024-02-21T11:14:48;11.40;99.90
42833;DHT22;64089;51.478;5.692;2024-02-21T11:17:17;11.40;99.90
42833;DHT22;64089;51.478;5.692;2024-02-21T11:19:43;11.20;99.90
42833;DHT22;64089;51.478;5.692;2024-02-21T11:22:19;11.10;99.90
42833;DHT22;64089;51.478;5.692;2024-02-21T11:24:47;11.20;99.90
42833;DHT22;64089;51.478;5.692;2024-02-21T11:27:16;11.20;99.90
42833;DHT22;64089;51.478;5.692;2024-02-21T11:29:45;11.30;99.90
42833;DHT22;64089;51.478;5.692;2024-02-21T11:32:14;11.30;99.90
42833;DHT22;64089;51.478;5.692;2024-02-21T11:34:40;11.20;99.90
42833;DHT22;64089;51.478;5.692;2024-02-21T11:37:15;11.30;99.90
42833;DHT22;64089;51.478;5.692;2024-02-21T11:39:41;11.30;99.90
42833;DHT22;64089;51.478;5.692;2024-02-21T11:42:08;11.30;99.90
42833;DHT22;64089;51.478;5.692;2024-02-21T11:44:35;11.30;99.90
42833;DHT22;64089;51.478;5.692;2024-02-21T11:47:03;11.30;99.90
42833;DHT22;64089;51.478;5.692;2024-02-21T11:49:30;11.40;99.90
42833;DHT22;64089;51.478;5.692;2024-02-21T11:52:02;11.60;99.90
42833;DHT22;64089;51.478;5.692;2024-02-21T11:54:30;11.80;99.90
42833;DHT22;64089;51.478;5.692;2024-02-21T11:56:56;12.10;99.90
42833;DHT22;64089;51.478;5.692;2024-02-21T11:59:22;12.20;99.90
42833;DHT22;64089;51.478;5.692;2024-02-21T12:01:48;12.10;99.90
42833;DHT22;64089;51.478;5.692;2024-02-21T12:04:15;12.00;99.90
42833;DHT22;64089;51.478;5.692;2024-02-21T12:06:44;11.80;99.90
42833;DHT22;64089;51.478;5.692;2024-02-21T12:09:14;11.60;99.90
42833;DHT22;64089;51.478;5.692;2024-02-21T12:11:40;11.70;99.90
42833;DHT22;64089;51.478;5.692;2024-02-21T12:14:06;11.70;99.90
42833;DHT22;64089;51.478;5.692;2024-02-21T12:16:32;11.80;99.90
42833;DHT22;64089;51.478;5.692;2024-02-21T12:19:01;11.90;99.90
42833;DHT22;64089;51.478;5.692;2024-02-21T12:21:31;12.00;99.90
42833;DHT22;64089;51.478;5.692;2024-02-21T12:23:58;12.10;99.90
42833;DHT22;64089;51.478;5.692;2024-02-21T12:26:24;12.20;99.90
42833;DHT22;64089;51.478;5.692;2024-02-21T12:28:49;12.30;99.90
42833;DHT22;64089;51.478;5.692;2024-02-21T12:31:15;12.50;99.90
42833;DHT22;64089;51.478;5.692;2024-02-21T12:33:42;12.60;99.90
42833;DHT22;64089;51.478;5.692;2024-02-21T12:36:07;12.70;99.90
42833;DHT22;64089;51.478;5.692;2024-02-21T12:38:34;12.70;99.90
42833;DHT22;64089;51.478;5.692;2024-02-21T12:41:00;12.80;99.90
42833;DHT22;64089;51.478;5.692;2024-02-21T12:43:26;12.70;99.90
42833;DHT22;64089;51.478;5.692;2024-02-21T12:45:52;12.70;99.90
42833;DHT22;64089;51.478;5.692;2024-02-21T12:48:18;12.70;99.90
42833;DHT22;64089;51.478;5.692;2024-02-21T12:50:50;12.70;99.90
42833;DHT22;64089;51.478;5.692;2024-02-21T12:53:20;12.70;99.90
42833;DHT22;64089;51.478;5.692;2024-02-21T12:55:50;12.60;99.90
42833;DHT22;64089;51.478;5.692;2024-02-21T12:58:16;12.50;99.90
42833;DHT22;64089;51.478;5.692;2024-02-21T13:00:42;12.40;99.90
42833;DHT22;64089;51.478;5.692;2024-02-21T13:03:08;12.40;99.90
42833;DHT22;64089;51.478;5.692;2024-02-21T13:05:37;12.40;99.90
42833;DHT22;64089;51.478;5.692;2024-02-21T13:08:05;12.30;99.90
42833;DHT22;64089;51.478;5.692;2024-02-21T13:10:31;12.20;99.90
42833;DHT22;64089;51.478;5.692;2024-02-21T13:12:56;12.20;99.90
42833;DHT22;64089;51.478;5.692;2024-02-21T13:15:22;12.10;99.90
42833;DHT22;64089;51.478;5.692;2024-02-21T13:17:47;12.10;99.90
42833;DHT22;64089;51.478;5.692;2024-02-21T13:20:13;12.10;99.90
42833;DHT22;64089;51.478;5.692;2024-02-21T13:22:39;12.20;99.90
42833;DHT22;64089;51.478;5.692;2024-02-21T13:25:05;12.20;99.90
42833;DHT22;64089;51.478;5.692;2024-02-21T13:27:33;12.20;99.90
42833;DHT22;64089;51.478;5.692;2024-02-21T13:29:59;12.10;99.90
42833;DHT22;64089;51.478;5.692;2024-02-21T13:32:26;12.00;99.90
42833;DHT22;64089;51.478;5.692;2024-02-21T13:34:52;12.00;99.90
42833;DHT22;64089;51.478;5.692;2024-02-21T13:37:18;11.90;99.90
42833;DHT22;64089;51.478;5.692;2024-02-21T13:39:43;11.90;99.90
42833;DHT22;64089;51.478;5.692;2024-02-21T13:42:09;11.80;99.90
42833;DHT22;64089;51.478;5.692;2024-02-21T13:44:35;11.80;99.90
42833;DHT22;64089;51.478;5.692;2024-02-21T13:47:02;11.80;99.90
42833;DHT22;64089;51.478;5.692;2024-02-21T13:49:27;11.80;99.90
42833;DHT22;64089;51.478;5.692;2024-02-21T13:51:54;11.80;99.90
42833;DHT22;64089;51.478;5.692;2024-02-21T13:54:19;11.70;99.90
42833;DHT22;64089;51.478;5.692;2024-02-21T13:56:46;11.70;99.90
42833;DHT22;64089;51.478;5.692;2024-02-21T13:59:12;11.70;99.90
42833;DHT22;64089;51.478;5.692;2024-02-21T14:01:41;11.70;99.90
42833;DHT22;64089;51.478;5.692;2024-02-21T14:04:08;11.70;99.90
42833;DHT22;64089;51.478;5.692;2024-02-21T14:06:33;11.70;99.90
42833;DHT22;64089;51.478;5.692;2024-02-21T14:08:59;11.60;99.90
42833;DHT22;64089;51.478;5.692;2024-02-21T14:11:25;11.60;99.90
42833;DHT22;64089;51.478;5.692;2024-02-21T14:13:52;11.60;99.90
42833;DHT22;64089;51.478;5.692;2024-02-21T14:16:18;11.50;99.90
42833;DHT22;64089;51.478;5.692;2024-02-21T14:18:43;11.50;99.90
42833;DHT22;64089;51.478;5.692;2024-02-21T14:21:10;11.40;99.90
42833;DHT22;64089;51.478;5.692;2024-02-21T14:23:38;11.40;99.90
42833;DHT22;64089;51.478;5.692;2024-02-21T14:26:05;11.40;99.90
42833;DHT22;64089;51.478;5.692;2024-02-21T14:28:32;11.40;99.90
42833;DHT22;64089;51.478;5.692;2024-02-21T14:30:59;11.40;99.90
42833;DHT22;64089;51.478;5.692;2024-02-21T14:33:26;11.40;99.90
42833;DHT22;64089;51.478;5.692;2024-02-21T14:35:52;11.40;99.90
42833;DHT22;64089;51.478;5.692;2024-02-21T14:38:19;11.40;99.90
42833;DHT22;64089;51.478;5.692;2024-02-21T14:40:45;11.40;99.90
42833;DHT22;64089;51.478;5.692;2024-02-21T14:43:11;11.50;99.90
42833;DHT22;64089;51.478;5.692;2024-02-21T14:45:36;11.50;99.90
42833;DHT22;64089;51.478;5.692;2024-02-21T14:48:03;11.40;99.90
42833;DHT22;64089;51.478;5.692;2024-02-21T14:50:29;11.40;99.90
42833;DHT22;64089;51.478;5.692;2024-02-21T14:52:55;11.40;99.90
42833;DHT22;64089;51.478;5.692;2024-02-21T14:55:20;11.40;99.90
42833;DHT22;64089;51.478;5.692;2024-02-21T14:57:46;11.40;99.90
42833;DHT22;64089;51.478;5.692;2024-02-21T15:00:12;11.30;99.90
42833;DHT22;64089;51.478;5.692;2024-02-21T15:02:38;11.30;99.90
42833;DHT22;64089;51.478;5.692;2024-02-21T15:05:04;11.30;99.90
42833;DHT22;64089;51.478;5.692;2024-02-21T15:07:31;11.20;99.90
42833;DHT22;64089;51.478;5.692;2024-02-21T15:09:57;11.30;99.90
42833;DHT22;64089;51.478;5.692;2024-02-21T15:12:22;11.40;99.90
42833;DHT22;64089;51.478;5.692;2024-02-21T15:14:49;11.40;99.90
42833;DHT22;64089;51.478;5.692;2024-02-21T15:17:14;11.40;99.90
42833;DHT22;64089;51.478;5.692;2024-02-21T15:19:40;11.40;99.90
42833;DHT22;64089;51.478;5.692;2024-02-21T15:22:09;11.40;99.90
42833;DHT22;64089;51.478;5.692;2024-02-21T15:24:40;11.50;99.90
42833;DHT22;64089;51.478;5.692;2024-02-21T15:27:06;11.60;99.90
42833;DHT22;64089;51.478;5.692;2024-02-21T15:29:32;11.50;99.90
42833;DHT22;64089;51.478;5.692;2024-02-21T15:31:57;11.40;99.90
42833;DHT22;64089;51.478;5.692;2024-02-21T15:34:23;11.30;99.90
42833;DHT22;64089;51.478;5.692;2024-02-21T15:36:49;11.20;99.90
42833;DHT22;64089;51.478;5.692;2024-02-21T15:39:14;11.10;99.90
42833;DHT22;64089;51.478;5.692;2024-02-21T15:41:40;11.00;99.90